sensor_id;sensor_type;location;lat;lon;timestamp;P1;durP1;ratioP1;P2;durP2;ratioP2
3050;SDS011;1535;51.098;6.414;2022-08-19T00:02:07;24.37;;;22.20;;
3050;SDS011;1535;51.098;6.414;2022-08-19T00:04:35;21.13;;;19.23;;
3050;SDS011;1535;51.098;6.414;2022-08-19T00:07:02;21.83;;;19.90;;
3050;SDS011;1535;51.098;6.414;2022-08-19T00:09:32;23.60;;;21.43;;
3050;SDS011;1535;51.098;6.414;2022-08-19T00:11:59;24.13;;;21.83;;
3050;SDS011;1535;51.098;6.414;2022-08-19T00:14:27;23.80;;;21.33;;
3050;SDS011;1535;51.098;6.414;2022-08-19T00:16:57;24.67;;;22.00;;
3050;SDS011;1535;51.098;6.414;2022-08-19T00:19:28;22.37;;;20.47;;
3050;SDS011;1535;51.098;6.414;2022-08-19T00:21:56;23.13;;;20.80;;
3050;SDS011;1535;51.098;6.414;2022-08-19T00:24:25;23.53;;;21.50;;
3050;SDS011;1535;51.098;6.414;2022-08-19T00:26:54;22.40;;;20.40;;
3050;SDS011;1535;51.098;6.414;2022-08-19T00:29:23;22.90;;;21.00;;
3050;SDS011;1535;51.098;6.414;2022-08-19T00:31:50;23.90;;;21.90;;
3050;SDS011;1535;51.098;6.414;2022-08-19T00:34:18;23.13;;;21.23;;
3050;SDS011;1535;51.098;6.414;2022-08-19T00:36:45;23.47;;;21.33;;
3050;SDS011;1535;51.098;6.414;2022-08-19T00:39:15;23.00;;;21.10;;
3050;SDS011;1535;51.098;6.414;2022-08-19T00:41:43;23.47;;;21.17;;
3050;SDS011;1535;51.098;6.414;2022-08-19T00:44:13;29.10;;;26.60;;
3050;SDS011;1535;51.098;6.414;2022-08-19T00:46:42;23.50;;;21.50;;
3050;SDS011;1535;51.098;6.414;2022-08-19T00:49:11;25.00;;;22.80;;
3050;SDS011;1535;51.098;6.414;2022-08-19T00:51:41;21.83;;;19.97;;
3050;SDS011;1535;51.098;6.414;2022-08-19T00:54:09;22.27;;;20.37;;
3050;SDS011;1535;51.098;6.414;2022-08-19T00:56:38;29.17;;;26.37;;
3050;SDS011;1535;51.098;6.414;2022-08-19T00:59:07;28.27;;;25.70;;
3050;SDS011;1535;51.098;6.414;2022-08-19T01:01:35;26.20;;;23.97;;
3050;SDS011;1535;51.098;6.414;2022-08-19T01:04:03;28.20;;;25.80;;
3050;SDS011;1535;51.098;6.414;2022-08-19T01:06:30;27.00;;;24.60;;
3050;SDS011;1535;51.098;6.414;2022-08-19T01:08:58;31.00;;;27.80;;
3050;SDS011;1535;51.098;6.414;2022-08-19T01:11:25;28.10;;;23.77;;
3050;SDS011;1535;51.098;6.414;2022-08-19T01:13:55;28.83;;;26.20;;
3050;SDS011;1535;51.098;6.414;2022-08-19T01:16:24;27.47;;;25.07;;
3050;SDS011;1535;51.098;6.414;2022-08-19T01:18:54;26.50;;;23.90;;
3050;SDS011;1535;51.098;6.414;2022-08-19T01:21:22;26.50;;;24.20;;
3050;SDS011;1535;51.098;6.414;2022-08-19T01:23:55;28.00;;;25.30;;
3050;SDS011;1535;51.098;6.414;2022-08-19T01:26:23;31.70;;;28.40;;
3050;SDS011;1535;51.098;6.414;2022-08-19T01:28:53;30.73;;;27.73;;
3050;SDS011;1535;51.098;6.414;2022-08-19T01:31:23;29.67;;;26.77;;
3050;SDS011;1535;51.098;6.414;2022-08-19T01:33:55;37.00;;;30.10;;
3050;SDS011;1535;51.098;6.414;2022-08-19T01:36:24;29.37;;;26.67;;
3050;SDS011;1535;51.098;6.414;2022-08-19T01:38:57;37.70;;;28.83;;
3050;SDS011;1535;51.098;6.414;2022-08-19T01:41:25;28.07;;;25.17;;
3050;SDS011;1535;51.098;6.414;2022-08-19T01:43:52;26.50;;;24.07;;
3050;SDS011;1535;51.098;6.414;2022-08-19T01:46:21;29.40;;;26.73;;
3050;SDS011;1535;51.098;6.414;2022-08-19T01:48:49;29.93;;;27.17;;
3050;SDS011;1535;51.098;6.414;2022-08-19T01:51:18;31.50;;;26.37;;
3050;SDS011;1535;51.098;6.414;2022-08-19T01:53:47;32.07;;;28.60;;
3050;SDS011;1535;51.098;6.414;2022-08-19T01:56:16;28.50;;;25.63;;
3050;SDS011;1535;51.098;6.414;2022-08-19T01:58:44;39.20;;;35.00;;
3050;SDS011;1535;51.098;6.414;2022-08-19T02:01:17;35.57;;;30.37;;
3050;SDS011;1535;51.098;6.414;2022-08-19T02:03:44;38.13;;;33.33;;
3050;SDS011;1535;51.098;6.414;2022-08-19T02:06:12;35.50;;;30.67;;
3050;SDS011;1535;51.098;6.414;2022-08-19T02:08:42;34.30;;;30.27;;
3050;SDS011;1535;51.098;6.414;2022-08-19T02:11:17;36.10;;;31.83;;
3050;SDS011;1535;51.098;6.414;2022-08-19T02:13:47;37.90;;;32.40;;
3050;SDS011;1535;51.098;6.414;2022-08-19T02:16:17;41.43;;;34.07;;
3050;SDS011;1535;51.098;6.414;2022-08-19T02:18:46;44.00;;;38.63;;
3050;SDS011;1535;51.098;6.414;2022-08-19T02:21:14;47.10;;;39.43;;
3050;SDS011;1535;51.098;6.414;2022-08-19T02:23:41;58.90;;;44.80;;
3050;SDS011;1535;51.098;6.414;2022-08-19T02:26:09;56.17;;;42.40;;
3050;SDS011;1535;51.098;6.414;2022-08-19T02:28:37;48.20;;;42.03;;
3050;SDS011;1535;51.098;6.414;2022-08-19T02:31:08;52.90;;;42.47;;
3050;SDS011;1535;51.098;6.414;2022-08-19T02:33:35;56.43;;;42.40;;
3050;SDS011;1535;51.098;6.414;2022-08-19T02:36:03;45.47;;;40.47;;
3050;SDS011;1535;51.098;6.414;2022-08-19T02:38:30;48.70;;;40.70;;
3050;SDS011;1535;51.098;6.414;2022-08-19T02:40:59;49.27;;;41.00;;
3050;SDS011;1535;51.098;6.414;2022-08-19T02:43:29;49.53;;;41.07;;
3050;SDS011;1535;51.098;6.414;2022-08-19T02:45:59;59.00;;;44.70;;
3050;SDS011;1535;51.098;6.414;2022-08-19T02:48:26;55.30;;;47.90;;
3050;SDS011;1535;51.098;6.414;2022-08-19T02:50:53;59.70;;;45.97;;
3050;SDS011;1535;51.098;6.414;2022-08-19T02:53:22;61.53;;;47.23;;
3050;SDS011;1535;51.098;6.414;2022-08-19T02:55:53;57.93;;;46.97;;
3050;SDS011;1535;51.098;6.414;2022-08-19T02:58:21;57.67;;;45.93;;
3050;SDS011;1535;51.098;6.414;2022-08-19T03:00:50;56.53;;;46.60;;
3050;SDS011;1535;51.098;6.414;2022-08-19T03:03:19;58.77;;;47.93;;
3050;SDS011;1535;51.098;6.414;2022-08-19T03:05:47;60.07;;;51.70;;
3050;SDS011;1535;51.098;6.414;2022-08-19T03:08:14;69.20;;;52.67;;
3050;SDS011;1535;51.098;6.414;2022-08-19T03:10:42;64.50;;;50.70;;
3050;SDS011;1535;51.098;6.414;2022-08-19T03:13:12;67.87;;;51.33;;
3050;SDS011;1535;51.098;6.414;2022-08-19T03:15:40;65.70;;;54.07;;
3050;SDS011;1535;51.098;6.414;2022-08-19T03:18:09;77.27;;;55.77;;
3050;SDS011;1535;51.098;6.414;2022-08-19T03:20:41;75.40;;;55.00;;
3050;SDS011;1535;51.098;6.414;2022-08-19T03:23:08;73.40;;;56.00;;
3050;SDS011;1535;51.098;6.414;2022-08-19T03:25:39;67.83;;;51.47;;
3050;SDS011;1535;51.098;6.414;2022-08-19T03:28:09;73.90;;;56.63;;
3050;SDS011;1535;51.098;6.414;2022-08-19T03:30:37;72.13;;;55.50;;
3050;SDS011;1535;51.098;6.414;2022-08-19T03:33:05;70.63;;;54.23;;
3050;SDS011;1535;51.098;6.414;2022-08-19T03:35:33;75.10;;;56.20;;
3050;SDS011;1535;51.098;6.414;2022-08-19T03:38:03;74.10;;;57.63;;
3050;SDS011;1535;51.098;6.414;2022-08-19T03:40:31;68.97;;;54.97;;
3050;SDS011;1535;51.098;6.414;2022-08-19T03:42:59;79.17;;;55.77;;
3050;SDS011;1535;51.098;6.414;2022-08-19T03:45:27;77.17;;;59.63;;
3050;SDS011;1535;51.098;6.414;2022-08-19T03:47:54;79.13;;;57.27;;
3050;SDS011;1535;51.098;6.414;2022-08-19T03:50:21;75.97;;;57.47;;
3050;SDS011;1535;51.098;6.414;2022-08-19T03:52:49;76.93;;;59.00;;
3050;SDS011;1535;51.098;6.414;2022-08-19T03:55:18;77.90;;;58.80;;
3050;SDS011;1535;51.098;6.414;2022-08-19T03:57:45;75.40;;;58.57;;
3050;SDS011;1535;51.098;6.414;2022-08-19T04:00:14;73.90;;;57.27;;
3050;SDS011;1535;51.098;6.414;2022-08-19T04:02:41;74.47;;;57.10;;
3050;SDS011;1535;51.098;6.414;2022-08-19T04:05:08;76.20;;;56.90;;
3050;SDS011;1535;51.098;6.414;2022-08-19T04:07:36;79.50;;;60.27;;
3050;SDS011;1535;51.098;6.414;2022-08-19T04:10:03;83.27;;;60.10;;
3050;SDS011;1535;51.098;6.414;2022-08-19T04:12:32;73.00;;;56.53;;
3050;SDS011;1535;51.098;6.414;2022-08-19T04:14:59;83.87;;;58.80;;
3050;SDS011;1535;51.098;6.414;2022-08-19T04:17:25;74.90;;;56.40;;
3050;SDS011;1535;51.098;6.414;2022-08-19T04:19:53;83.37;;;57.87;;
3050;SDS011;1535;51.098;6.414;2022-08-19T04:22:19;77.30;;;54.60;;
3050;SDS011;1535;51.098;6.414;2022-08-19T04:24:47;76.03;;;55.10;;
3050;SDS011;1535;51.098;6.414;2022-08-19T04:27:13;78.90;;;53.40;;
3050;SDS011;1535;51.098;6.414;2022-08-19T04:29:42;77.60;;;54.53;;
3050;SDS011;1535;51.098;6.414;2022-08-19T04:32:09;74.77;;;54.37;;
3050;SDS011;1535;51.098;6.414;2022-08-19T04:34:39;70.77;;;52.00;;
3050;SDS011;1535;51.098;6.414;2022-08-19T04:37:06;82.97;;;53.10;;
3050;SDS011;1535;51.098;6.414;2022-08-19T04:39:36;73.40;;;53.10;;
3050;SDS011;1535;51.098;6.414;2022-08-19T04:42:21;73.60;;;50.90;;
3050;SDS011;1535;51.098;6.414;2022-08-19T04:45:08;78.40;;;54.17;;
3050;SDS011;1535;51.098;6.414;2022-08-19T04:47:37;75.17;;;52.10;;
3050;SDS011;1535;51.098;6.414;2022-08-19T04:50:05;80.33;;;52.43;;
3050;SDS011;1535;51.098;6.414;2022-08-19T04:52:34;78.13;;;54.17;;
3050;SDS011;1535;51.098;6.414;2022-08-19T04:55:00;72.13;;;51.37;;
3050;SDS011;1535;51.098;6.414;2022-08-19T04:57:27;75.67;;;53.57;;
3050;SDS011;1535;51.098;6.414;2022-08-19T04:59:54;66.33;;;50.57;;
3050;SDS011;1535;51.098;6.414;2022-08-19T05:02:23;72.00;;;52.70;;
3050;SDS011;1535;51.098;6.414;2022-08-19T05:04:50;65.90;;;51.00;;
3050;SDS011;1535;51.098;6.414;2022-08-19T05:07:22;77.07;;;53.00;;
3050;SDS011;1535;51.098;6.414;2022-08-19T05:09:48;77.27;;;52.27;;
3050;SDS011;1535;51.098;6.414;2022-08-19T05:12:15;69.93;;;53.20;;
3050;SDS011;1535;51.098;6.414;2022-08-19T05:14:42;79.33;;;53.30;;
3050;SDS011;1535;51.098;6.414;2022-08-19T05:17:10;78.87;;;53.37;;
3050;SDS011;1535;51.098;6.414;2022-08-19T05:19:39;75.20;;;54.20;;
3050;SDS011;1535;51.098;6.414;2022-08-19T05:22:23;68.07;;;53.77;;
3050;SDS011;1535;51.098;6.414;2022-08-19T05:24:59;74.63;;;53.47;;
3050;SDS011;1535;51.098;6.414;2022-08-19T05:27:28;71.37;;;54.70;;
3050;SDS011;1535;51.098;6.414;2022-08-19T05:29:55;70.20;;;52.60;;
3050;SDS011;1535;51.098;6.414;2022-08-19T05:32:22;72.57;;;53.00;;
3050;SDS011;1535;51.098;6.414;2022-08-19T05:34:50;75.00;;;54.83;;
3050;SDS011;1535;51.098;6.414;2022-08-19T05:37:18;72.83;;;55.60;;
3050;SDS011;1535;51.098;6.414;2022-08-19T05:39:45;88.07;;;57.17;;
3050;SDS011;1535;51.098;6.414;2022-08-19T05:42:12;80.40;;;56.80;;
3050;SDS011;1535;51.098;6.414;2022-08-19T05:44:40;77.30;;;56.73;;
3050;SDS011;1535;51.098;6.414;2022-08-19T05:47:10;83.30;;;57.57;;
3050;SDS011;1535;51.098;6.414;2022-08-19T05:49:38;88.13;;;55.23;;
3050;SDS011;1535;51.098;6.414;2022-08-19T05:52:08;76.40;;;56.80;;
3050;SDS011;1535;51.098;6.414;2022-08-19T05:54:37;85.33;;;59.47;;
3050;SDS011;1535;51.098;6.414;2022-08-19T05:57:06;83.47;;;59.90;;
3050;SDS011;1535;51.098;6.414;2022-08-19T05:59:34;85.23;;;58.97;;
3050;SDS011;1535;51.098;6.414;2022-08-19T06:02:01;86.23;;;59.17;;
3050;SDS011;1535;51.098;6.414;2022-08-19T06:04:29;91.10;;;59.53;;
3050;SDS011;1535;51.098;6.414;2022-08-19T06:06:56;88.20;;;60.30;;
3050;SDS011;1535;51.098;6.414;2022-08-19T06:09:25;80.30;;;60.00;;
3050;SDS011;1535;51.098;6.414;2022-08-19T06:11:53;88.87;;;58.53;;
3050;SDS011;1535;51.098;6.414;2022-08-19T06:14:24;91.57;;;60.77;;
3050;SDS011;1535;51.098;6.414;2022-08-19T06:16:51;95.57;;;59.40;;
3050;SDS011;1535;51.098;6.414;2022-08-19T06:19:19;89.17;;;62.60;;
3050;SDS011;1535;51.098;6.414;2022-08-19T06:21:50;85.60;;;58.73;;
3050;SDS011;1535;51.098;6.414;2022-08-19T06:24:19;87.07;;;57.60;;
3050;SDS011;1535;51.098;6.414;2022-08-19T06:26:50;90.50;;;59.50;;
3050;SDS011;1535;51.098;6.414;2022-08-19T06:29:19;85.43;;;57.70;;
3050;SDS011;1535;51.098;6.414;2022-08-19T06:31:48;95.63;;;61.50;;
3050;SDS011;1535;51.098;6.414;2022-08-19T06:34:19;96.80;;;60.57;;
3050;SDS011;1535;51.098;6.414;2022-08-19T06:36:47;96.73;;;58.37;;
3050;SDS011;1535;51.098;6.414;2022-08-19T06:39:16;91.57;;;57.47;;
3050;SDS011;1535;51.098;6.414;2022-08-19T06:41:45;97.53;;;60.23;;
3050;SDS011;1535;51.098;6.414;2022-08-19T06:44:14;96.43;;;59.67;;
3050;SDS011;1535;51.098;6.414;2022-08-19T06:46:42;95.10;;;58.03;;
3050;SDS011;1535;51.098;6.414;2022-08-19T06:49:09;95.13;;;56.83;;
3050;SDS011;1535;51.098;6.414;2022-08-19T06:51:39;100.53;;;58.47;;
3050;SDS011;1535;51.098;6.414;2022-08-19T06:54:06;99.63;;;58.03;;
3050;SDS011;1535;51.098;6.414;2022-08-19T06:56:33;92.40;;;57.10;;
3050;SDS011;1535;51.098;6.414;2022-08-19T06:59:02;88.67;;;55.40;;
3050;SDS011;1535;51.098;6.414;2022-08-19T07:01:34;98.40;;;54.20;;
3050;SDS011;1535;51.098;6.414;2022-08-19T07:04:04;74.40;;;53.00;;
3050;SDS011;1535;51.098;6.414;2022-08-19T07:06:33;84.77;;;56.53;;
3050;SDS011;1535;51.098;6.414;2022-08-19T07:09:01;79.00;;;53.10;;
3050;SDS011;1535;51.098;6.414;2022-08-19T07:11:28;83.80;;;53.07;;
3050;SDS011;1535;51.098;6.414;2022-08-19T07:13:55;65.90;;;48.77;;
3050;SDS011;1535;51.098;6.414;2022-08-19T07:16:23;69.17;;;49.67;;
3050;SDS011;1535;51.098;6.414;2022-08-19T07:18:51;60.43;;;46.53;;
3050;SDS011;1535;51.098;6.414;2022-08-19T07:21:18;59.50;;;45.80;;
3050;SDS011;1535;51.098;6.414;2022-08-19T07:23:47;60.20;;;45.20;;
3050;SDS011;1535;51.098;6.414;2022-08-19T07:26:16;56.50;;;45.47;;
3050;SDS011;1535;51.098;6.414;2022-08-19T07:28:46;69.27;;;46.60;;
3050;SDS011;1535;51.098;6.414;2022-08-19T07:31:14;55.10;;;43.60;;
3050;SDS011;1535;51.098;6.414;2022-08-19T07:33:44;61.57;;;47.37;;
3050;SDS011;1535;51.098;6.414;2022-08-19T07:36:14;52.20;;;41.77;;
3050;SDS011;1535;51.098;6.414;2022-08-19T07:38:44;58.00;;;45.20;;
3050;SDS011;1535;51.098;6.414;2022-08-19T07:41:18;48.37;;;42.97;;
3050;SDS011;1535;51.098;6.414;2022-08-19T07:43:46;50.23;;;44.80;;
3050;SDS011;1535;51.098;6.414;2022-08-19T07:46:14;52.00;;;41.70;;
3050;SDS011;1535;51.098;6.414;2022-08-19T07:48:43;48.17;;;40.60;;
3050;SDS011;1535;51.098;6.414;2022-08-19T07:51:13;46.57;;;40.13;;
3050;SDS011;1535;51.098;6.414;2022-08-19T07:53:44;50.07;;;40.70;;
3050;SDS011;1535;51.098;6.414;2022-08-19T07:56:12;55.53;;;40.67;;
3050;SDS011;1535;51.098;6.414;2022-08-19T07:58:40;49.70;;;39.17;;
3050;SDS011;1535;51.098;6.414;2022-08-19T08:01:10;45.77;;;39.97;;
3050;SDS011;1535;51.098;6.414;2022-08-19T08:03:37;48.97;;;41.37;;
3050;SDS011;1535;51.098;6.414;2022-08-19T08:06:24;48.20;;;41.70;;
3050;SDS011;1535;51.098;6.414;2022-08-19T08:09:09;46.10;;;38.13;;
3050;SDS011;1535;51.098;6.414;2022-08-19T08:11:37;46.53;;;41.50;;
3050;SDS011;1535;51.098;6.414;2022-08-19T08:14:04;45.23;;;40.10;;
3050;SDS011;1535;51.098;6.414;2022-08-19T08:16:33;41.30;;;36.80;;
3050;SDS011;1535;51.098;6.414;2022-08-19T08:19:03;43.87;;;37.00;;
3050;SDS011;1535;51.098;6.414;2022-08-19T08:21:31;38.10;;;34.40;;
3050;SDS011;1535;51.098;6.414;2022-08-19T08:23:58;35.90;;;32.43;;
3050;SDS011;1535;51.098;6.414;2022-08-19T08:26:25;33.87;;;30.40;;
3050;SDS011;1535;51.098;6.414;2022-08-19T08:28:52;30.97;;;27.90;;
3050;SDS011;1535;51.098;6.414;2022-08-19T08:31:19;33.43;;;30.27;;
3050;SDS011;1535;51.098;6.414;2022-08-19T08:33:47;34.03;;;30.73;;
3050;SDS011;1535;51.098;6.414;2022-08-19T08:36:14;32.07;;;28.67;;
3050;SDS011;1535;51.098;6.414;2022-08-19T08:38:43;29.77;;;27.17;;
3050;SDS011;1535;51.098;6.414;2022-08-19T08:41:13;30.60;;;27.40;;
3050;SDS011;1535;51.098;6.414;2022-08-19T08:43:49;31.33;;;28.53;;
3050;SDS011;1535;51.098;6.414;2022-08-19T08:46:19;29.90;;;27.30;;
3050;SDS011;1535;51.098;6.414;2022-08-19T08:48:51;31.03;;;28.23;;
3050;SDS011;1535;51.098;6.414;2022-08-19T08:51:22;30.37;;;27.27;;
3050;SDS011;1535;51.098;6.414;2022-08-19T08:53:52;27.90;;;25.40;;
3050;SDS011;1535;51.098;6.414;2022-08-19T08:56:21;31.37;;;28.17;;
3050;SDS011;1535;51.098;6.414;2022-08-19T08:59:03;30.67;;;27.90;;
3050;SDS011;1535;51.098;6.414;2022-08-19T09:01:35;32.67;;;29.67;;
3050;SDS011;1535;51.098;6.414;2022-08-19T09:04:02;33.07;;;30.03;;
3050;SDS011;1535;51.098;6.414;2022-08-19T09:06:32;35.60;;;31.93;;
3050;SDS011;1535;51.098;6.414;2022-08-19T09:09:11;35.80;;;32.27;;
3050;SDS011;1535;51.098;6.414;2022-08-19T09:11:47;35.37;;;32.07;;
3050;SDS011;1535;51.098;6.414;2022-08-19T09:14:33;38.50;;;34.40;;
3050;SDS011;1535;51.098;6.414;2022-08-19T09:17:06;35.97;;;32.33;;
3050;SDS011;1535;51.098;6.414;2022-08-19T09:19:34;37.50;;;33.63;;
3050;SDS011;1535;51.098;6.414;2022-08-19T09:22:01;36.80;;;33.47;;
3050;SDS011;1535;51.098;6.414;2022-08-19T09:24:31;35.70;;;32.47;;
3050;SDS011;1535;51.098;6.414;2022-08-19T09:26:58;36.47;;;32.97;;
3050;SDS011;1535;51.098;6.414;2022-08-19T09:29:25;34.93;;;31.97;;
3050;SDS011;1535;51.098;6.414;2022-08-19T09:31:51;37.03;;;33.23;;
3050;SDS011;1535;51.098;6.414;2022-08-19T09:34:18;33.77;;;30.67;;
3050;SDS011;1535;51.098;6.414;2022-08-19T09:36:46;37.37;;;32.10;;
3050;SDS011;1535;51.098;6.414;2022-08-19T09:39:18;33.03;;;30.23;;
3050;SDS011;1535;51.098;6.414;2022-08-19T09:41:46;33.57;;;30.47;;
3050;SDS011;1535;51.098;6.414;2022-08-19T09:44:14;31.67;;;28.87;;
3050;SDS011;1535;51.098;6.414;2022-08-19T09:46:41;34.23;;;31.10;;
3050;SDS011;1535;51.098;6.414;2022-08-19T09:49:08;32.23;;;29.30;;
3050;SDS011;1535;51.098;6.414;2022-08-19T09:51:35;31.17;;;28.57;;
3050;SDS011;1535;51.098;6.414;2022-08-19T09:54:02;30.73;;;28.00;;
3050;SDS011;1535;51.098;6.414;2022-08-19T09:56:30;32.43;;;29.73;;
3050;SDS011;1535;51.098;6.414;2022-08-19T09:58:59;32.23;;;29.50;;
3050;SDS011;1535;51.098;6.414;2022-08-19T10:01:27;35.20;;;31.93;;
3050;SDS011;1535;51.098;6.414;2022-08-19T10:03:56;30.47;;;27.77;;
3050;SDS011;1535;51.098;6.414;2022-08-19T10:06:25;32.33;;;29.53;;
3050;SDS011;1535;51.098;6.414;2022-08-19T10:08:57;31.70;;;28.60;;
3050;SDS011;1535;51.098;6.414;2022-08-19T10:11:24;32.97;;;29.97;;
3050;SDS011;1535;51.098;6.414;2022-08-19T10:13:53;31.93;;;29.17;;
3050;SDS011;1535;51.098;6.414;2022-08-19T10:16:21;30.03;;;27.30;;
3050;SDS011;1535;51.098;6.414;2022-08-19T10:18:49;30.40;;;27.53;;
3050;SDS011;1535;51.098;6.414;2022-08-19T10:21:18;30.67;;;28.27;;
3050;SDS011;1535;51.098;6.414;2022-08-19T10:23:48;28.13;;;25.73;;
3050;SDS011;1535;51.098;6.414;2022-08-19T10:26:17;29.07;;;26.70;;
3050;SDS011;1535;51.098;6.414;2022-08-19T10:28:46;30.30;;;27.70;;
3050;SDS011;1535;51.098;6.414;2022-08-19T10:31:15;29.97;;;27.70;;
3050;SDS011;1535;51.098;6.414;2022-08-19T10:33:46;31.97;;;29.50;;
3050;SDS011;1535;51.098;6.414;2022-08-19T10:36:14;31.70;;;29.10;;
3050;SDS011;1535;51.098;6.414;2022-08-19T10:38:44;34.27;;;31.40;;
3050;SDS011;1535;51.098;6.414;2022-08-19T10:41:12;34.00;;;30.90;;
3050;SDS011;1535;51.098;6.414;2022-08-19T10:43:41;33.70;;;30.63;;
3050;SDS011;1535;51.098;6.414;2022-08-19T10:46:10;33.50;;;30.60;;
3050;SDS011;1535;51.098;6.414;2022-08-19T10:48:39;33.97;;;30.87;;
3050;SDS011;1535;51.098;6.414;2022-08-19T10:51:08;34.97;;;31.57;;
3050;SDS011;1535;51.098;6.414;2022-08-19T10:53:54;33.43;;;30.43;;
3050;SDS011;1535;51.098;6.414;2022-08-19T10:56:22;33.77;;;30.90;;
3050;SDS011;1535;51.098;6.414;2022-08-19T10:59:06;33.27;;;30.33;;
3050;SDS011;1535;51.098;6.414;2022-08-19T11:01:34;33.33;;;30.40;;
3050;SDS011;1535;51.098;6.414;2022-08-19T11:04:01;30.53;;;28.03;;
3050;SDS011;1535;51.098;6.414;2022-08-19T11:06:32;31.30;;;28.07;;
3050;SDS011;1535;51.098;6.414;2022-08-19T11:08:58;30.00;;;27.70;;
3050;SDS011;1535;51.098;6.414;2022-08-19T11:11:26;32.10;;;29.40;;
3050;SDS011;1535;51.098;6.414;2022-08-19T11:13:53;29.33;;;26.97;;
3050;SDS011;1535;51.098;6.414;2022-08-19T11:16:21;28.53;;;26.33;;
3050;SDS011;1535;51.098;6.414;2022-08-19T11:18:50;28.80;;;26.13;;
3050;SDS011;1535;51.098;6.414;2022-08-19T11:21:19;28.73;;;26.50;;
3050;SDS011;1535;51.098;6.414;2022-08-19T11:23:50;26.80;;;24.37;;
3050;SDS011;1535;51.098;6.414;2022-08-19T11:26:19;28.70;;;26.60;;
3050;SDS011;1535;51.098;6.414;2022-08-19T11:28:47;27.47;;;25.47;;
3050;SDS011;1535;51.098;6.414;2022-08-19T11:31:17;25.17;;;23.20;;
3050;SDS011;1535;51.098;6.414;2022-08-19T11:33:46;26.87;;;24.97;;
3050;SDS011;1535;51.098;6.414;2022-08-19T11:36:15;24.77;;;22.97;;
3050;SDS011;1535;51.098;6.414;2022-08-19T11:38:44;29.00;;;26.50;;
3050;SDS011;1535;51.098;6.414;2022-08-19T11:41:15;28.90;;;26.23;;
3050;SDS011;1535;51.098;6.414;2022-08-19T11:43:43;26.37;;;24.03;;
3050;SDS011;1535;51.098;6.414;2022-08-19T11:46:11;24.53;;;22.77;;
3050;SDS011;1535;51.098;6.414;2022-08-19T11:48:42;26.23;;;23.97;;
3050;SDS011;1535;51.098;6.414;2022-08-19T11:51:10;24.30;;;22.50;;
3050;SDS011;1535;51.098;6.414;2022-08-19T11:53:39;23.73;;;22.10;;
3050;SDS011;1535;51.098;6.414;2022-08-19T11:56:07;24.40;;;22.60;;
3050;SDS011;1535;51.098;6.414;2022-08-19T11:58:36;26.13;;;24.20;;
3050;SDS011;1535;51.098;6.414;2022-08-19T12:01:06;24.20;;;22.50;;
3050;SDS011;1535;51.098;6.414;2022-08-19T12:03:36;24.30;;;22.50;;
3050;SDS011;1535;51.098;6.414;2022-08-19T12:06:04;27.83;;;25.73;;
3050;SDS011;1535;51.098;6.414;2022-08-19T12:08:32;25.77;;;23.90;;
3050;SDS011;1535;51.098;6.414;2022-08-19T12:10:59;24.43;;;22.83;;
3050;SDS011;1535;51.098;6.414;2022-08-19T12:13:27;26.10;;;24.30;;
3050;SDS011;1535;51.098;6.414;2022-08-19T12:15:56;25.57;;;23.80;;
3050;SDS011;1535;51.098;6.414;2022-08-19T12:18:24;25.10;;;23.30;;
3050;SDS011;1535;51.098;6.414;2022-08-19T12:20:51;23.83;;;21.73;;
3050;SDS011;1535;51.098;6.414;2022-08-19T12:23:21;24.53;;;22.83;;
3050;SDS011;1535;51.098;6.414;2022-08-19T12:25:48;22.67;;;20.70;;
3050;SDS011;1535;51.098;6.414;2022-08-19T12:28:16;22.50;;;21.03;;
3050;SDS011;1535;51.098;6.414;2022-08-19T12:30:45;22.87;;;21.10;;
3050;SDS011;1535;51.098;6.414;2022-08-19T12:33:13;24.27;;;22.67;;
3050;SDS011;1535;51.098;6.414;2022-08-19T12:35:41;24.43;;;22.53;;
3050;SDS011;1535;51.098;6.414;2022-08-19T12:38:11;20.47;;;19.17;;
3050;SDS011;1535;51.098;6.414;2022-08-19T12:40:39;20.60;;;19.07;;
3050;SDS011;1535;51.098;6.414;2022-08-19T12:43:06;20.20;;;18.80;;
3050;SDS011;1535;51.098;6.414;2022-08-19T12:45:33;21.90;;;20.40;;
3050;SDS011;1535;51.098;6.414;2022-08-19T12:48:01;20.90;;;19.20;;
3050;SDS011;1535;51.098;6.414;2022-08-19T12:50:29;20.63;;;18.97;;
3050;SDS011;1535;51.098;6.414;2022-08-19T12:52:56;19.20;;;17.80;;
3050;SDS011;1535;51.098;6.414;2022-08-19T12:55:23;21.30;;;19.57;;
3050;SDS011;1535;51.098;6.414;2022-08-19T12:57:53;20.47;;;19.07;;
3050;SDS011;1535;51.098;6.414;2022-08-19T13:00:21;19.53;;;18.20;;
3050;SDS011;1535;51.098;6.414;2022-08-19T13:02:50;19.63;;;18.53;;
3050;SDS011;1535;51.098;6.414;2022-08-19T13:05:20;19.67;;;18.57;;
3050;SDS011;1535;51.098;6.414;2022-08-19T13:07:50;20.10;;;18.60;;
3050;SDS011;1535;51.098;6.414;2022-08-19T13:10:21;19.07;;;17.80;;
3050;SDS011;1535;51.098;6.414;2022-08-19T13:12:53;19.23;;;18.03;;
3050;SDS011;1535;51.098;6.414;2022-08-19T13:15:20;19.57;;;18.20;;
3050;SDS011;1535;51.098;6.414;2022-08-19T13:17:49;19.63;;;18.10;;
3050;SDS011;1535;51.098;6.414;2022-08-19T13:20:18;18.50;;;17.23;;
3050;SDS011;1535;51.098;6.414;2022-08-19T13:22:46;18.33;;;17.13;;
3050;SDS011;1535;51.098;6.414;2022-08-19T13:25:15;18.57;;;17.37;;
3050;SDS011;1535;51.098;6.414;2022-08-19T13:27:45;17.90;;;17.00;;
3050;SDS011;1535;51.098;6.414;2022-08-19T13:30:13;17.97;;;16.70;;
3050;SDS011;1535;51.098;6.414;2022-08-19T13:33:15;17.60;;;16.70;;
3050;SDS011;1535;51.098;6.414;2022-08-19T13:35:43;17.70;;;16.70;;
3050;SDS011;1535;51.098;6.414;2022-08-19T13:38:13;17.93;;;16.73;;
3050;SDS011;1535;51.098;6.414;2022-08-19T13:40:42;17.30;;;16.20;;
3050;SDS011;1535;51.098;6.414;2022-08-19T13:43:09;17.67;;;16.37;;
3050;SDS011;1535;51.098;6.414;2022-08-19T13:45:36;17.70;;;16.30;;
3050;SDS011;1535;51.098;6.414;2022-08-19T13:48:05;17.53;;;16.53;;
3050;SDS011;1535;51.098;6.414;2022-08-19T13:50:37;17.17;;;16.17;;
3050;SDS011;1535;51.098;6.414;2022-08-19T13:53:07;17.60;;;16.50;;
3050;SDS011;1535;51.098;6.414;2022-08-19T13:55:35;19.67;;;18.17;;
3050;SDS011;1535;51.098;6.414;2022-08-19T13:58:04;18.80;;;17.70;;
3050;SDS011;1535;51.098;6.414;2022-08-19T14:00:33;18.33;;;17.23;;
3050;SDS011;1535;51.098;6.414;2022-08-19T14:03:02;18.57;;;17.47;;
3050;SDS011;1535;51.098;6.414;2022-08-19T14:05:30;17.57;;;16.63;;
3050;SDS011;1535;51.098;6.414;2022-08-19T14:07:57;18.77;;;17.60;;
3050;SDS011;1535;51.098;6.414;2022-08-19T14:10:25;19.20;;;18.10;;
3050;SDS011;1535;51.098;6.414;2022-08-19T14:12:55;19.50;;;18.10;;
3050;SDS011;1535;51.098;6.414;2022-08-19T14:15:26;19.70;;;18.33;;
3050;SDS011;1535;51.098;6.414;2022-08-19T14:17:53;19.60;;;18.40;;
3050;SDS011;1535;51.098;6.414;2022-08-19T14:20:21;18.90;;;17.80;;
3050;SDS011;1535;51.098;6.414;2022-08-19T14:22:48;19.10;;;18.00;;
3050;SDS011;1535;51.098;6.414;2022-08-19T14:25:16;19.00;;;17.70;;
3050;SDS011;1535;51.098;6.414;2022-08-19T14:27:45;19.30;;;17.80;;
3050;SDS011;1535;51.098;6.414;2022-08-19T14:30:14;18.93;;;17.70;;
3050;SDS011;1535;51.098;6.414;2022-08-19T14:32:43;18.20;;;17.17;;
3050;SDS011;1535;51.098;6.414;2022-08-19T14:35:11;18.87;;;17.53;;
3050;SDS011;1535;51.098;6.414;2022-08-19T14:37:40;18.37;;;17.27;;
3050;SDS011;1535;51.098;6.414;2022-08-19T14:40:08;18.33;;;17.37;;
3050;SDS011;1535;51.098;6.414;2022-08-19T14:42:38;17.67;;;16.57;;
3050;SDS011;1535;51.098;6.414;2022-08-19T14:45:06;18.23;;;17.13;;
3050;SDS011;1535;51.098;6.414;2022-08-19T14:47:34;17.83;;;16.87;;
3050;SDS011;1535;51.098;6.414;2022-08-19T14:50:02;17.03;;;16.13;;
3050;SDS011;1535;51.098;6.414;2022-08-19T14:52:31;16.93;;;16.13;;
3050;SDS011;1535;51.098;6.414;2022-08-19T14:54:58;17.47;;;16.57;;
3050;SDS011;1535;51.098;6.414;2022-08-19T14:57:25;17.20;;;16.30;;
3050;SDS011;1535;51.098;6.414;2022-08-19T14:59:52;17.23;;;16.13;;